createdAt,value
2023-05-14T00:00:30.054Z,14.40
2023-05-14T00:02:57.024Z,18.90
2023-05-14T00:05:24.228Z,16.50
2023-05-14T00:07:51.208Z,16.50
2023-05-14T00:10:20.410Z,16.40
2023-05-14T00:12:47.950Z,16.30
2023-05-14T00:15:14.872Z,17.20
2023-05-14T00:17:42.500Z,16.20
2023-05-14T00:20:12.138Z,17.40
2023-05-14T00:22:40.135Z,16.10
2023-05-14T00:25:08.869Z,17.80
2023-05-14T00:27:37.836Z,16.10
2023-05-14T00:30:07.003Z,16.00
2023-05-14T00:32:34.452Z,16.10
2023-05-14T00:35:03.158Z,16.00
2023-05-14T00:37:30.386Z,17.70
2023-05-14T00:39:58.324Z,16.00
2023-05-14T00:42:27.129Z,16.00
2023-05-14T00:44:54.193Z,16.00
2023-05-14T00:47:21.423Z,15.90
2023-05-14T00:49:48.478Z,17.60
2023-05-14T00:52:18.061Z,15.80
2023-05-14T00:54:48.050Z,15.80
2023-05-14T00:57:15.113Z,15.70
2023-05-14T00:59:42.772Z,17.70
2023-05-14T01:02:11.603Z,15.60
2023-05-14T01:04:39.498Z,15.60
2023-05-14T01:07:53.474Z,15.50
2023-05-14T01:10:34.952Z,15.50
2023-05-14T01:13:30.954Z,15.40
2023-05-14T01:16:00.601Z,15.40
2023-05-14T01:18:30.941Z,15.30
2023-05-14T01:20:58.565Z,15.30
2023-05-14T01:23:25.453Z,15.20
2023-05-14T01:25:53.634Z,17.90
2023-05-14T01:28:32.264Z,15.10
2023-05-14T01:31:19.694Z,15.10
2023-05-14T01:33:49.715Z,16.40
2023-05-14T01:36:16.844Z,16.40
2023-05-14T01:38:47.191Z,15.80
2023-05-14T01:41:16.402Z,15.00
2023-05-14T01:43:44.698Z,17.70
2023-05-14T01:46:11.812Z,15.30
2023-05-14T01:48:38.822Z,14.90
2023-05-14T01:51:06.606Z,14.80
2023-05-14T01:53:34.964Z,14.80
2023-05-14T01:56:02.328Z,14.80
2023-05-14T01:58:29.252Z,15.20
2023-05-14T02:00:56.180Z,14.70
2023-05-14T02:03:23.044Z,16.50
2023-05-14T02:05:50.135Z,14.60
2023-05-14T02:08:17.031Z,16.60
2023-05-14T02:10:43.984Z,15.00
2023-05-14T02:13:10.869Z,14.40
2023-05-14T02:15:38.590Z,15.40
2023-05-14T02:18:05.926Z,15.00
2023-05-14T02:20:33.055Z,14.20
2023-05-14T02:23:00.191Z,14.10
2023-05-14T02:25:27.139Z,15.30
2023-05-14T02:27:54.200Z,14.00
2023-05-14T02:30:22.919Z,13.90
2023-05-14T02:32:50.295Z,13.90
2023-05-14T02:35:17.358Z,15.50
2023-05-14T02:37:44.248Z,13.90
2023-05-14T02:40:11.651Z,16.00
2023-05-14T02:42:38.564Z,13.90
2023-05-14T02:45:06.495Z,14.20
2023-05-14T02:47:36.026Z,13.90
2023-05-14T02:50:06.412Z,13.90
2023-05-14T02:52:33.387Z,13.90
2023-05-14T02:55:00.561Z,13.90
2023-05-14T02:57:27.482Z,14.00
2023-05-14T02:59:54.498Z,15.00
2023-05-14T03:02:22.134Z,14.00
2023-05-14T03:04:49.738Z,14.80
2023-05-14T03:07:16.962Z,14.00
2023-05-14T03:09:44.136Z,14.60
2023-05-14T03:12:11.443Z,14.30
2023-05-14T03:14:38.450Z,14.00
2023-05-14T03:17:05.784Z,14.90
2023-05-14T03:19:32.743Z,13.90
2023-05-14T03:21:59.778Z,15.00
2023-05-14T03:24:26.808Z,14.60
2023-05-14T03:26:53.737Z,13.90
2023-05-14T03:29:20.858Z,15.30
2023-05-14T03:31:47.869Z,13.80
2023-05-14T03:34:15.276Z,15.90
2023-05-14T03:36:42.213Z,15.00
2023-05-14T03:39:09.708Z,16.40
2023-05-14T03:41:37.556Z,13.60
2023-05-14T03:44:06.371Z,13.60
2023-05-14T03:46:33.277Z,13.50
2023-05-14T03:49:00.369Z,15.20
2023-05-14T03:51:27.851Z,14.00
2023-05-14T03:53:54.850Z,14.80
2023-05-14T03:56:22.609Z,14.30
2023-05-14T03:58:49.574Z,13.30
2023-05-14T04:01:16.621Z,13.30
2023-05-14T04:03:43.850Z,13.20
2023-05-14T04:06:11.462Z,13.20
2023-05-14T04:08:38.375Z,14.40
2023-05-14T04:11:06.144Z,13.10
2023-05-14T04:13:33.120Z,13.10
2023-05-14T04:16:00.581Z,13.20
2023-05-14T04:18:27.695Z,14.50
2023-05-14T04:20:55.062Z,13.00
2023-05-14T04:23:22.146Z,13.00
2023-05-14T04:25:49.293Z,14.30
2023-05-14T04:28:16.288Z,13.00
2023-05-14T04:30:43.209Z,14.40
2023-05-14T04:33:10.378Z,12.90
2023-05-14T04:35:37.562Z,14.80
2023-05-14T04:38:04.599Z,14.30
2023-05-14T04:40:32.134Z,13.50
2023-05-14T04:42:59.059Z,14.20
2023-05-14T04:45:26.523Z,14.90
2023-05-14T04:47:53.557Z,12.90
2023-05-14T04:50:20.650Z,12.90
2023-05-14T04:52:47.819Z,12.90
2023-05-14T04:55:14.777Z,13.30
2023-05-14T04:57:41.718Z,14.00
2023-05-14T05:00:12.215Z,13.70
2023-05-14T05:02:39.412Z,12.90
2023-05-14T05:05:06.569Z,14.10
2023-05-14T05:07:33.603Z,13.00
2023-05-14T05:10:00.665Z,13.10
2023-05-14T05:12:30.084Z,13.10
2023-05-14T05:14:57.755Z,13.20
2023-05-14T05:17:25.469Z,13.20
2023-05-14T05:19:52.784Z,14.40
2023-05-14T05:22:20.306Z,13.40
2023-05-14T05:24:49.827Z,13.40
2023-05-14T05:27:17.132Z,14.60
2023-05-14T05:29:44.732Z,14.80
2023-05-14T05:32:11.973Z,13.50
2023-05-14T05:34:39.341Z,15.00
2023-05-14T05:37:06.352Z,13.70
2023-05-14T05:39:35.219Z,13.70
2023-05-14T05:42:02.924Z,15.10
2023-05-14T05:44:29.870Z,15.00
2023-05-14T05:46:57.875Z,15.30
2023-05-14T05:49:24.874Z,15.70
2023-05-14T05:51:51.815Z,14.20
2023-05-14T05:54:18.742Z,14.30
2023-05-14T05:56:45.811Z,14.40
2023-05-14T05:59:12.768Z,14.50
2023-05-14T06:01:41.454Z,14.60
2023-05-14T06:04:08.412Z,14.80
2023-05-14T06:06:35.602Z,15.70
2023-05-14T06:09:02.544Z,15.60
2023-05-14T06:11:29.462Z,16.20
2023-05-14T06:13:56.427Z,15.30
2023-05-14T06:16:23.430Z,16.70
2023-05-14T06:18:52.287Z,16.80
2023-05-14T06:21:19.334Z,17.30
2023-05-14T06:23:46.287Z,15.60
2023-05-14T06:26:13.271Z,15.70
2023-05-14T06:28:40.232Z,16.30
2023-05-14T06:31:07.271Z,15.90
2023-05-14T06:33:34.206Z,16.00
2023-05-14T06:36:05.373Z,13.90
2023-05-14T06:38:33.474Z,16.30
2023-05-14T06:41:00.398Z,17.10
2023-05-14T06:43:28.526Z,17.10
2023-05-14T06:45:55.554Z,18.40
2023-05-14T06:48:22.724Z,16.90
2023-05-14T06:50:50.283Z,17.30
2023-05-14T06:53:17.524Z,16.80
2023-05-14T06:55:45.010Z,17.00
2023-05-14T06:58:11.973Z,16.90
2023-05-14T07:00:39.420Z,18.20
2023-05-14T07:03:06.435Z,17.10
2023-05-14T07:05:33.424Z,17.80
2023-05-14T07:08:00.447Z,17.30
2023-05-14T07:10:27.476Z,18.30
2023-05-14T07:12:54.572Z,17.60
2023-05-14T07:15:21.554Z,17.80
2023-05-14T07:17:49.053Z,17.90
2023-05-14T07:20:16.058Z,18.70
2023-05-14T07:22:43.070Z,19.00
2023-05-14T07:25:10.291Z,18.20
2023-05-14T07:27:37.286Z,18.40
2023-05-14T07:30:08.251Z,18.50
2023-05-14T07:32:35.380Z,18.60
2023-05-14T07:35:02.304Z,18.70
2023-05-14T07:37:32.255Z,18.80
2023-05-14T07:39:59.181Z,19.00
2023-05-14T07:42:35.739Z,19.20
2023-05-14T07:45:05.338Z,19.70
2023-05-14T07:47:32.935Z,19.30
2023-05-14T07:50:00.279Z,19.30
2023-05-14T07:52:27.357Z,19.70
2023-05-14T07:54:55.011Z,19.50
2023-05-14T07:57:22.119Z,19.60
2023-05-14T07:59:49.773Z,19.70
2023-05-14T08:02:17.562Z,19.80
2023-05-14T08:04:45.571Z,19.90
2023-05-14T08:07:12.681Z,20.00
2023-05-14T08:09:39.920Z,18.80
2023-05-14T08:12:07.601Z,20.20
2023-05-14T08:14:34.778Z,20.30
2023-05-14T08:17:01.774Z,20.50
2023-05-14T08:19:28.728Z,20.70
2023-05-14T08:21:55.897Z,21.40
2023-05-14T08:24:22.744Z,20.90
2023-05-14T08:26:49.785Z,21.10
2023-05-14T08:29:16.927Z,21.10
2023-05-14T08:31:44.122Z,21.90
2023-05-14T08:34:11.210Z,21.30
2023-05-14T08:36:39.482Z,21.40
2023-05-14T08:39:07.828Z,21.50
2023-05-14T08:41:35.347Z,21.70
2023-05-14T08:44:10.823Z,22.00
2023-05-14T08:46:39.329Z,22.20
2023-05-14T08:49:53.502Z,23.10
2023-05-14T08:52:22.789Z,22.60
2023-05-14T08:54:54.050Z,22.70
2023-05-14T08:57:24.833Z,22.80
2023-05-14T08:59:54.002Z,23.50
2023-05-14T09:02:27.504Z,23.00
2023-05-14T09:05:07.356Z,23.20
2023-05-14T09:07:34.341Z,23.40
2023-05-14T09:10:02.761Z,23.60
2023-05-14T09:12:35.553Z,23.70
2023-05-14T09:15:03.821Z,24.00
2023-05-14T09:17:30.767Z,24.00
2023-05-14T09:19:58.446Z,24.10
2023-05-14T09:22:25.437Z,24.10
2023-05-14T09:25:12.319Z,24.10
2023-05-14T09:27:40.568Z,24.20
2023-05-14T09:30:13.373Z,24.30
2023-05-14T09:32:46.281Z,24.40
2023-05-14T09:35:22.612Z,24.50
2023-05-14T09:37:54.796Z,24.60
2023-05-14T09:40:24.665Z,24.70
2023-05-14T09:42:52.297Z,24.70
2023-05-14T09:45:19.283Z,24.90
2023-05-14T09:47:46.652Z,25.00
2023-05-14T09:50:14.064Z,25.10
2023-05-14T09:52:41.104Z,25.20
2023-05-14T09:55:08.701Z,25.30
2023-05-14T09:57:36.709Z,25.40
2023-05-14T10:00:05.788Z,25.50
2023-05-14T10:02:38.794Z,25.50
2023-05-14T10:05:07.854Z,25.50
2023-05-14T10:07:47.748Z,25.60
2023-05-14T10:10:26.681Z,25.60
2023-05-14T10:13:00.259Z,25.60
2023-05-14T10:15:57.823Z,25.70
2023-05-14T10:18:31.692Z,25.70
2023-05-14T10:21:07.792Z,25.80
2023-05-14T10:23:38.064Z,26.00
2023-05-14T10:26:06.605Z,26.40
2023-05-14T10:28:34.575Z,26.20
2023-05-14T10:31:01.916Z,26.30
2023-05-14T10:33:29.065Z,26.40
2023-05-14T10:36:06.135Z,26.50
2023-05-14T10:38:36.388Z,26.60
2023-05-14T10:41:21.597Z,26.70
2023-05-14T10:43:48.942Z,26.70
2023-05-14T10:46:16.388Z,26.80
2023-05-14T10:48:44.596Z,26.80
2023-05-14T10:51:12.837Z,26.80
2023-05-14T10:53:43.127Z,25.60
2023-05-14T10:56:14.728Z,27.00
2023-05-14T10:58:46.429Z,27.00
2023-05-14T11:01:14.316Z,25.80
2023-05-14T11:03:47.051Z,27.10
2023-05-14T11:06:16.483Z,27.00
2023-05-14T11:08:44.617Z,27.00
2023-05-14T11:11:12.450Z,27.10
2023-05-14T11:13:39.583Z,27.20
2023-05-14T11:16:21.753Z,27.30
2023-05-14T11:19:02.337Z,27.40
2023-05-14T11:21:31.588Z,27.50
2023-05-14T11:24:01.345Z,27.60
2023-05-14T11:26:28.410Z,27.60
2023-05-14T11:28:55.834Z,27.70
2023-05-14T11:31:24.145Z,27.80
2023-05-14T11:33:52.744Z,28.00
2023-05-14T11:36:19.906Z,28.20
2023-05-14T11:38:51.483Z,28.40
2023-05-14T11:41:21.326Z,28.50
2023-05-14T11:43:49.111Z,28.70
2023-05-14T11:46:19.204Z,28.70
2023-05-14T11:48:46.438Z,28.80
2023-05-14T11:51:13.428Z,28.90
2023-05-14T11:53:40.507Z,29.00
2023-05-14T11:56:09.653Z,29.10
2023-05-14T11:58:37.269Z,29.20
2023-05-14T12:01:04.774Z,29.50
2023-05-14T12:03:31.902Z,29.60
2023-05-14T12:06:01.704Z,29.70
2023-05-14T12:08:31.736Z,29.80
2023-05-14T12:11:00.996Z,29.80
2023-05-14T12:13:29.980Z,29.80
2023-05-14T12:16:00.446Z,29.90
2023-05-14T12:18:32.406Z,29.80
2023-05-14T12:21:08.407Z,29.90
2023-05-14T12:23:38.291Z,29.90
2023-05-14T12:26:08.873Z,29.90
2023-05-14T12:28:43.344Z,29.90
2023-05-14T12:31:10.956Z,30.00
2023-05-14T12:33:38.056Z,30.00
2023-05-14T12:36:20.685Z,30.10
2023-05-14T12:38:50.759Z,30.20
2023-05-14T12:41:18.532Z,30.40
2023-05-14T12:43:49.331Z,30.50
2023-05-14T12:46:17.146Z,30.70
2023-05-14T12:48:44.121Z,31.00
2023-05-14T12:51:11.066Z,31.30
2023-05-14T12:53:37.993Z,31.70
2023-05-14T12:56:05.802Z,31.90
2023-05-14T12:58:32.885Z,32.20
2023-05-14T13:00:59.874Z,32.30
2023-05-14T13:03:26.833Z,32.50
2023-05-14T13:05:54.645Z,32.50
2023-05-14T13:08:25.009Z,32.50
2023-05-14T13:10:54.071Z,32.50
2023-05-14T13:13:21.476Z,32.40
2023-05-14T13:15:48.788Z,32.50
2023-05-14T13:18:17.750Z,32.30
2023-05-14T13:20:47.492Z,32.40
2023-05-14T13:23:15.037Z,32.30
2023-05-14T13:25:42.125Z,32.20
2023-05-14T13:28:09.643Z,32.10
2023-05-14T13:30:36.669Z,31.90
2023-05-14T13:33:04.000Z,31.70
2023-05-14T13:35:31.087Z,31.70
2023-05-14T13:37:57.944Z,31.60
2023-05-14T13:40:24.988Z,31.60
2023-05-14T13:42:51.915Z,31.70
2023-05-14T13:45:18.944Z,31.80
2023-05-14T13:47:46.344Z,31.90
2023-05-14T13:50:14.042Z,32.00
2023-05-14T13:52:41.033Z,31.90
2023-05-14T13:55:08.514Z,31.70
2023-05-14T13:57:35.424Z,31.40
2023-05-14T14:00:04.648Z,31.10
2023-05-14T14:02:32.316Z,30.80
2023-05-14T14:05:01.443Z,30.60
2023-05-14T14:07:28.413Z,30.40
2023-05-14T14:09:55.392Z,30.30
2023-05-14T14:12:22.429Z,30.20
2023-05-14T14:14:49.398Z,30.20
2023-05-14T14:17:16.534Z,30.20
2023-05-14T14:19:43.475Z,30.20
2023-05-14T14:22:12.539Z,30.20
2023-05-14T14:24:39.523Z,30.20
2023-05-14T14:27:06.412Z,30.10
2023-05-14T14:29:34.406Z,30.00
2023-05-14T14:32:01.512Z,29.90
2023-05-14T14:34:28.603Z,29.80
2023-05-14T14:36:55.570Z,29.70
2023-05-14T14:39:25.338Z,29.70
2023-05-14T14:41:52.415Z,29.60
2023-05-14T14:44:19.458Z,29.60
2023-05-14T14:46:47.555Z,29.50
2023-05-14T14:49:14.490Z,30.70
2023-05-14T14:51:41.553Z,29.50
2023-05-14T14:54:08.491Z,29.40
2023-05-14T14:56:35.420Z,29.30
2023-05-14T14:59:02.392Z,29.10
2023-05-14T15:01:29.656Z,29.00
2023-05-14T15:03:56.594Z,28.80
2023-05-14T15:06:23.684Z,28.60
2023-05-14T15:08:53.063Z,28.40
2023-05-14T15:11:20.071Z,28.30
2023-05-14T15:13:46.999Z,28.10
2023-05-14T15:16:14.127Z,27.90
2023-05-14T15:18:41.064Z,27.80
2023-05-14T15:21:08.095Z,27.60
2023-05-14T15:23:35.232Z,27.50
2023-05-14T15:26:02.234Z,27.30
2023-05-14T15:28:29.168Z,27.20
2023-05-14T15:30:56.130Z,27.00
2023-05-14T15:33:23.652Z,26.90
2023-05-14T15:35:51.250Z,26.80
2023-05-14T15:38:18.133Z,26.70
2023-05-14T15:40:45.292Z,26.60
2023-05-14T15:43:12.457Z,26.40
2023-05-14T15:45:39.445Z,26.30
2023-05-14T15:48:06.541Z,26.20
2023-05-14T15:50:33.602Z,26.10
2023-05-14T15:53:00.951Z,26.00
2023-05-14T15:55:28.050Z,25.90
2023-05-14T15:57:55.033Z,25.80
2023-05-14T16:00:22.180Z,25.70
2023-05-14T16:02:49.111Z,25.60
2023-05-14T16:05:16.251Z,25.60
2023-05-14T16:07:43.720Z,25.60
2023-05-14T16:10:11.148Z,25.60
2023-05-14T16:12:38.131Z,25.60
2023-05-14T16:15:07.996Z,25.50
2023-05-14T16:17:35.105Z,25.50
2023-05-14T16:20:04.740Z,25.50
2023-05-14T16:22:36.009Z,25.50
2023-05-14T16:25:04.939Z,25.50
2023-05-14T16:27:32.111Z,25.50
2023-05-14T16:29:59.446Z,25.50
2023-05-14T16:32:26.631Z,25.50
2023-05-14T16:34:53.715Z,25.50
2023-05-14T16:37:20.759Z,25.60
2023-05-14T16:39:48.379Z,25.60
2023-05-14T16:42:15.588Z,25.60
2023-05-14T16:44:42.648Z,25.60
2023-05-14T16:47:11.090Z,25.60
2023-05-14T16:49:38.054Z,25.60
2023-05-14T16:52:05.932Z,25.50
2023-05-14T16:54:32.913Z,25.50
2023-05-14T16:56:59.845Z,25.50
2023-05-14T16:59:26.837Z,25.40
2023-05-14T17:01:53.938Z,25.40
2023-05-14T17:04:21.228Z,25.40
2023-05-14T17:06:48.374Z,25.30
2023-05-14T17:09:15.309Z,25.30
2023-05-14T17:11:42.600Z,25.20
2023-05-14T17:14:09.873Z,25.10
2023-05-14T17:16:38.750Z,24.90
2023-05-14T17:19:05.915Z,24.80
2023-05-14T17:21:32.913Z,24.70
2023-05-14T17:23:59.871Z,24.60
2023-05-14T17:26:26.943Z,24.50
2023-05-14T17:28:53.937Z,24.40
2023-05-14T17:31:22.344Z,24.20
2023-05-14T17:33:49.565Z,24.00
2023-05-14T17:36:16.688Z,23.90
2023-05-14T17:38:43.661Z,23.80
2023-05-14T17:41:10.688Z,23.60
2023-05-14T17:43:37.797Z,23.50
2023-05-14T17:46:05.391Z,23.30
2023-05-14T17:48:32.814Z,22.10
2023-05-14T17:50:59.761Z,23.00
2023-05-14T17:53:26.677Z,22.90
2023-05-14T17:55:53.633Z,22.80
2023-05-14T17:58:21.003Z,22.70
2023-05-14T18:00:47.887Z,22.50
2023-05-14T18:03:15.155Z,22.40
2023-05-14T18:05:42.363Z,22.20
2023-05-14T18:08:09.651Z,22.10
2023-05-14T18:10:36.631Z,21.90
2023-05-14T18:13:03.828Z,21.80
2023-05-14T18:15:31.580Z,21.70
2023-05-14T18:17:58.961Z,21.60
2023-05-14T18:20:25.950Z,21.50
2023-05-14T18:22:53.074Z,21.40
2023-05-14T18:25:20.126Z,21.30
2023-05-14T18:27:48.248Z,21.10
2023-05-14T18:30:16.085Z,21.00
2023-05-14T18:32:44.935Z,20.90
2023-05-14T18:35:13.662Z,20.80
2023-05-14T18:37:42.082Z,20.90
2023-05-14T18:40:09.703Z,20.60
2023-05-14T18:42:36.939Z,20.50
2023-05-14T18:45:04.649Z,20.40
2023-05-14T18:47:33.351Z,20.30
2023-05-14T18:50:02.003Z,20.20
2023-05-14T18:52:29.452Z,20.10
2023-05-14T18:54:57.900Z,20.00
2023-05-14T18:57:29.390Z,22.20
2023-05-14T18:59:56.411Z,19.70
2023-05-14T19:02:23.565Z,20.10
2023-05-14T19:04:52.363Z,19.50
2023-05-14T19:07:21.324Z,20.60
2023-05-14T19:09:48.722Z,19.40
2023-05-14T19:12:16.224Z,19.70
2023-05-14T19:14:43.340Z,20.20
2023-05-14T19:17:11.097Z,19.10
2023-05-14T19:19:41.550Z,19.20
2023-05-14T19:22:08.605Z,18.90
2023-05-14T19:24:37.700Z,18.80
2023-05-14T19:27:04.905Z,18.80
2023-05-14T19:29:36.660Z,18.60
2023-05-14T19:32:04.750Z,17.80
2023-05-14T19:34:31.722Z,18.50
2023-05-14T19:36:58.812Z,18.40
2023-05-14T19:39:25.902Z,18.40
2023-05-14T19:41:53.075Z,18.30
2023-05-14T19:44:19.966Z,19.30
2023-05-14T19:46:47.507Z,18.20
2023-05-14T19:49:14.543Z,18.00
2023-05-14T19:51:41.483Z,18.00
2023-05-14T19:54:08.648Z,19.30
2023-05-14T19:56:35.890Z,18.10
2023-05-14T19:59:02.855Z,17.90
2023-05-14T20:01:30.167Z,17.70
2023-05-14T20:03:57.108Z,17.60
2023-05-14T20:06:24.060Z,17.50
2023-05-14T20:08:51.604Z,17.40
2023-05-14T20:11:19.702Z,18.30
2023-05-14T20:13:46.755Z,17.70
2023-05-14T20:16:16.921Z,17.20
2023-05-14T20:18:44.777Z,19.00
2023-05-14T20:21:11.960Z,17.10
2023-05-14T20:23:38.937Z,17.00
2023-05-14T20:26:05.971Z,18.70
2023-05-14T20:28:32.953Z,16.90
2023-05-14T20:31:01.239Z,16.80
2023-05-14T20:33:29.171Z,16.70
2023-05-14T20:35:56.687Z,16.60
2023-05-14T20:38:25.668Z,18.90
2023-05-14T20:40:52.634Z,16.50
2023-05-14T20:43:19.603Z,16.40
2023-05-14T20:45:46.659Z,16.40
2023-05-14T20:48:16.370Z,16.30
2023-05-14T20:50:44.389Z,16.40
2023-05-14T20:53:11.278Z,16.30
2023-05-14T20:55:39.417Z,16.20
2023-05-14T20:58:06.461Z,17.00
2023-05-14T21:00:33.495Z,16.00
2023-05-14T21:03:00.799Z,17.40
2023-05-14T21:05:28.486Z,16.00
2023-05-14T21:07:55.482Z,17.30
2023-05-14T21:10:22.685Z,15.90
2023-05-14T21:12:49.980Z,15.80
2023-05-14T21:15:17.080Z,15.70
2023-05-14T21:17:44.080Z,15.70
2023-05-14T21:20:13.386Z,15.70
2023-05-14T21:22:40.461Z,15.60
2023-05-14T21:25:08.059Z,16.50
2023-05-14T21:27:35.304Z,15.50
2023-05-14T21:30:02.587Z,15.40
2023-05-14T21:32:29.611Z,17.30
2023-05-14T21:34:56.659Z,17.30
2023-05-14T21:37:23.578Z,15.30
2023-05-14T21:39:50.973Z,15.90
2023-05-14T21:42:20.837Z,15.20
2023-05-14T21:44:47.921Z,15.20
2023-05-14T21:47:16.181Z,16.70
2023-05-14T21:49:43.380Z,16.30
2023-05-14T21:52:10.794Z,15.20
2023-05-14T21:54:37.856Z,16.30
2023-05-14T21:57:05.212Z,17.00
2023-05-14T21:59:33.929Z,14.90
2023-05-14T22:04:30.773Z,14.80
2023-05-14T22:06:57.731Z,14.80
2023-05-14T22:09:24.910Z,15.90
2023-05-14T22:11:51.766Z,14.70
2023-05-14T22:14:18.721Z,16.80
2023-05-14T22:16:45.803Z,14.60
2023-05-14T22:19:12.930Z,16.20
2023-05-14T22:21:40.051Z,14.60
2023-05-14T22:24:07.487Z,16.70
2023-05-14T22:26:35.222Z,14.50
2023-05-14T22:29:02.281Z,14.80
2023-05-14T22:31:29.952Z,15.00
2023-05-14T22:33:56.981Z,16.30
2023-05-14T22:36:23.948Z,14.50
2023-05-14T22:38:50.910Z,13.60
2023-05-14T22:41:17.887Z,15.50
2023-05-14T22:43:45.017Z,15.60
2023-05-14T22:46:12.074Z,16.60
2023-05-14T22:48:39.121Z,15.80
2023-05-14T22:51:06.131Z,15.60
2023-05-14T22:53:33.139Z,15.60
2023-05-14T22:56:00.314Z,14.20
2023-05-14T22:58:27.205Z,14.40
2023-05-14T23:00:54.116Z,16.40
2023-05-14T23:03:21.207Z,16.30
2023-05-14T23:05:49.222Z,14.10
2023-05-14T23:08:16.288Z,16.50
2023-05-14T23:10:43.275Z,16.10
2023-05-14T23:13:10.187Z,14.00
2023-05-14T23:15:38.774Z,14.00
2023-05-14T23:18:05.961Z,14.00
2023-05-14T23:20:33.005Z,13.90
2023-05-14T23:22:59.908Z,16.00
2023-05-14T23:25:26.938Z,14.10
2023-05-14T23:27:53.911Z,13.80
2023-05-14T23:30:20.920Z,14.00
2023-05-14T23:32:47.894Z,13.70
2023-05-14T23:35:14.934Z,13.70
2023-05-14T23:37:47.068Z,13.60
2023-05-14T23:40:15.643Z,15.00
2023-05-14T23:42:43.490Z,13.50
2023-05-14T23:45:13.029Z,15.80
2023-05-14T23:47:41.194Z,13.50
2023-05-14T23:50:08.863Z,13.40
2023-05-14T23:52:36.609Z,13.40
2023-05-14T23:55:04.318Z,15.60
2023-05-14T23:57:31.273Z,13.40
2023-05-14T23:59:59.279Z,13.40
